createdAt,value
2018-06-08T00:00:48.157Z,19.40
2018-06-08T00:02:51.296Z,17.00
2018-06-08T00:04:54.444Z,18.50
2018-06-08T00:06:57.571Z,17.37
2018-06-08T00:09:00.748Z,17.00
2018-06-08T00:11:03.896Z,18.20
2018-06-08T00:13:07.130Z,18.60
2018-06-08T00:15:10.289Z,20.00
2018-06-08T00:17:13.445Z,18.83
2018-06-08T00:19:16.576Z,20.50
2018-06-08T00:21:19.724Z,21.83
2018-06-08T00:23:22.855Z,21.10
2018-06-08T00:25:26.051Z,21.40
2018-06-08T00:27:29.299Z,21.53
2018-06-08T00:29:32.462Z,21.03
2018-06-08T00:31:35.607Z,21.57
2018-06-08T00:33:39.104Z,21.67
2018-06-08T00:35:42.336Z,21.90
2018-06-08T00:37:45.505Z,22.77
2018-06-08T00:39:48.732Z,21.83
2018-06-08T00:41:51.916Z,20.00
2018-06-08T00:43:55.093Z,21.77
2018-06-08T00:45:58.270Z,22.00
2018-06-08T00:48:01.412Z,21.87
2018-06-08T00:50:04.602Z,23.20
2018-06-08T00:52:07.733Z,21.90
2018-06-08T00:54:10.869Z,23.93
2018-06-08T00:56:25.496Z,22.10
2018-06-08T00:58:28.626Z,21.73
2018-06-08T01:00:31.761Z,22.57
2018-06-08T01:02:34.893Z,24.20
2018-06-08T01:04:38.093Z,22.47
2018-06-08T01:06:41.934Z,23.80
2018-06-08T01:08:45.059Z,25.20
2018-06-08T01:10:48.236Z,24.70
2018-06-08T01:12:51.367Z,26.67
2018-06-08T01:14:54.504Z,24.17
2018-06-08T01:16:58.386Z,26.37
2018-06-08T01:19:01.512Z,26.50
2018-06-08T01:21:04.657Z,24.80
2018-06-08T01:23:07.769Z,27.57
2018-06-08T01:25:10.937Z,28.77
2018-06-08T01:27:14.095Z,29.27
2018-06-08T01:29:17.244Z,30.40
2018-06-08T01:31:20.402Z,29.17
2018-06-08T01:33:23.528Z,29.90
2018-06-08T01:35:26.696Z,30.20
2018-06-08T01:37:30.141Z,31.43
2018-06-08T01:39:33.278Z,35.07
2018-06-08T01:41:36.625Z,30.97
2018-06-08T01:43:39.761Z,34.20
2018-06-08T01:45:42.933Z,32.57
2018-06-08T01:47:46.084Z,33.23
2018-06-08T01:49:49.239Z,33.20
2018-06-08T01:51:52.393Z,34.20
2018-06-08T01:53:56.165Z,36.10
2018-06-08T01:55:59.339Z,35.87
2018-06-08T01:58:03.184Z,38.00
2018-06-08T02:00:06.372Z,36.90
2018-06-08T02:02:09.520Z,36.37
2018-06-08T02:04:12.684Z,36.27
2018-06-08T02:06:15.872Z,37.50
2018-06-08T02:08:19.025Z,36.70
2018-06-08T02:10:22.206Z,37.40
2018-06-08T02:12:25.348Z,39.40
2018-06-08T02:14:28.592Z,38.90
2018-06-08T02:16:31.752Z,40.00
2018-06-08T02:18:34.921Z,41.30
2018-06-08T02:20:38.105Z,41.73
2018-06-08T02:22:41.271Z,40.27
2018-06-08T02:24:44.420Z,38.43
2018-06-08T02:26:47.594Z,41.47
2018-06-08T02:28:50.747Z,40.57
2018-06-08T02:30:53.921Z,43.27
2018-06-08T02:32:57.121Z,41.13
2018-06-08T02:35:00.268Z,41.47
2018-06-08T02:37:03.434Z,44.07
2018-06-08T02:39:08.259Z,43.33
2018-06-08T02:41:11.429Z,44.97
2018-06-08T02:43:14.602Z,42.30
2018-06-08T02:45:17.778Z,44.40
2018-06-08T02:47:21.003Z,45.30
2018-06-08T02:49:24.152Z,45.07
2018-06-08T02:51:27.634Z,43.03
2018-06-08T02:53:30.772Z,41.90
2018-06-08T02:55:33.900Z,46.57
2018-06-08T02:57:37.048Z,44.37
2018-06-08T02:59:40.197Z,43.80
2018-06-08T03:01:43.349Z,45.20
2018-06-08T03:03:46.491Z,47.10
2018-06-08T03:05:49.648Z,47.10
2018-06-08T03:07:52.790Z,41.77
2018-06-08T03:09:55.945Z,48.10
2018-06-08T03:11:59.130Z,48.57
2018-06-08T03:14:02.236Z,48.57
2018-06-08T03:16:05.633Z,49.23
2018-06-08T03:18:09.437Z,44.17
2018-06-08T03:20:12.589Z,47.80
2018-06-08T03:22:15.800Z,44.60
2018-06-08T03:24:18.936Z,45.13
2018-06-08T03:26:22.086Z,45.37
2018-06-08T03:28:25.242Z,46.07
2018-06-08T03:30:28.384Z,46.07
2018-06-08T03:32:31.572Z,47.13
2018-06-08T03:34:34.720Z,48.80
2018-06-08T03:36:37.877Z,47.03
2018-06-08T03:38:41.471Z,46.77
2018-06-08T03:40:44.622Z,45.37
2018-06-08T03:42:47.772Z,47.97
2018-06-08T03:44:50.935Z,46.13
2018-06-08T03:46:54.111Z,47.47
2018-06-08T03:48:57.303Z,46.13
2018-06-08T03:51:00.404Z,47.93
2018-06-08T03:53:03.577Z,46.40
2018-06-08T03:55:06.730Z,47.90
2018-06-08T03:57:09.888Z,48.30
2018-06-08T03:59:13.027Z,47.90
2018-06-08T04:01:16.192Z,47.67
2018-06-08T04:03:19.336Z,47.90
2018-06-08T04:05:23.362Z,48.20
2018-06-08T04:07:26.535Z,49.00
2018-06-08T04:09:29.689Z,45.70
2018-06-08T04:11:33.353Z,49.40
2018-06-08T04:13:37.489Z,45.10
2018-06-08T04:15:40.649Z,47.17
2018-06-08T04:17:43.791Z,47.73
2018-06-08T04:19:46.944Z,50.40
2018-06-08T04:21:50.179Z,46.40
2018-06-08T04:23:53.332Z,45.70
2018-06-08T04:25:56.471Z,46.90
2018-06-08T04:27:59.632Z,48.97
2018-06-08T04:30:03.776Z,47.77
2018-06-08T04:32:06.948Z,49.93
2018-06-08T04:34:10.116Z,54.50
2018-06-08T04:36:13.271Z,60.40
2018-06-08T04:38:16.438Z,61.53
2018-06-08T04:40:19.572Z,56.93
2018-06-08T04:42:22.735Z,62.93
2018-06-08T04:44:25.867Z,60.43
2018-06-08T04:46:29.016Z,60.37
2018-06-08T04:48:32.184Z,60.27
2018-06-08T04:50:35.308Z,61.37
2018-06-08T04:52:38.481Z,64.40
2018-06-08T04:54:41.647Z,66.17
2018-06-08T04:56:44.800Z,62.50
2018-06-08T04:58:47.960Z,60.27
2018-06-08T05:00:51.092Z,60.20
2018-06-08T05:02:54.261Z,53.57
2018-06-08T05:04:57.404Z,55.03
2018-06-08T05:07:00.555Z,56.13
2018-06-08T05:09:04.473Z,56.97
2018-06-08T05:11:07.596Z,58.70
2018-06-08T05:13:10.739Z,59.87
2018-06-08T05:15:13.867Z,56.80
2018-06-08T05:17:17.027Z,55.63
2018-06-08T05:19:20.181Z,52.97
2018-06-08T05:21:23.420Z,49.57
2018-06-08T05:23:26.570Z,55.73
2018-06-08T05:25:29.693Z,52.60
2018-06-08T05:27:32.839Z,51.60
2018-06-08T05:29:35.967Z,54.67
2018-06-08T05:31:39.092Z,54.43
2018-06-08T05:33:42.244Z,56.47
2018-06-08T05:35:45.375Z,56.40
2018-06-08T05:37:48.653Z,51.83
2018-06-08T05:39:51.800Z,57.40
2018-06-08T05:41:54.956Z,51.87
2018-06-08T05:43:58.104Z,51.27
2018-06-08T05:46:01.273Z,50.90
2018-06-08T05:48:04.204Z,50.30
2018-06-08T05:50:07.491Z,48.30
2018-06-08T05:52:10.639Z,53.23
2018-06-08T05:54:13.825Z,47.40
2018-06-08T05:56:16.969Z,49.30
2018-06-08T05:58:20.179Z,49.07
2018-06-08T06:00:23.313Z,48.40
2018-06-08T06:02:26.473Z,52.93
2018-06-08T06:04:29.663Z,52.83
2018-06-08T06:06:32.820Z,50.13
2018-06-08T06:08:35.773Z,50.40
2018-06-08T06:10:38.944Z,49.73
2018-06-08T06:12:42.081Z,47.80
2018-06-08T06:14:45.232Z,46.80
2018-06-08T06:16:48.368Z,48.87
2018-06-08T06:18:51.523Z,48.60
2018-06-08T06:20:54.703Z,52.63
2018-06-08T06:22:58.001Z,47.67
2018-06-08T06:25:01.557Z,48.57
2018-06-08T06:27:04.721Z,48.90
2018-06-08T06:29:07.896Z,47.73
2018-06-08T06:31:11.044Z,48.80
2018-06-08T06:33:14.288Z,49.37
2018-06-08T06:35:17.440Z,49.03
2018-06-08T06:37:20.406Z,47.03
2018-06-08T06:39:23.571Z,48.30
2018-06-08T06:41:26.735Z,46.00
2018-06-08T06:43:32.711Z,49.53
2018-06-08T06:45:35.952Z,44.33
2018-06-08T06:47:39.129Z,46.90
2018-06-08T06:49:42.071Z,45.43
2018-06-08T06:51:45.268Z,43.20
2018-06-08T06:53:49.055Z,45.90
2018-06-08T06:55:52.201Z,47.67
2018-06-08T06:57:55.386Z,46.70
2018-06-08T06:59:58.527Z,49.30
2018-06-08T07:02:01.769Z,47.40
2018-06-08T07:04:04.969Z,48.53
2018-06-08T07:06:08.167Z,47.57
2018-06-08T07:08:11.357Z,51.10
2018-06-08T07:10:14.527Z,52.93
2018-06-08T07:12:18.154Z,51.23
2018-06-08T07:14:21.384Z,53.37
2018-06-08T07:16:24.731Z,53.20
2018-06-08T07:18:28.090Z,50.50
2018-06-08T07:20:31.318Z,52.53
2018-06-08T07:22:35.440Z,48.40
2018-06-08T07:24:39.092Z,47.60
2018-06-08T07:26:42.682Z,43.87
2018-06-08T07:28:46.017Z,45.07
2018-06-08T07:30:49.271Z,43.90
2018-06-08T07:32:52.466Z,43.50
2018-06-08T07:34:55.760Z,44.03
2018-06-08T07:36:58.891Z,43.30
2018-06-08T07:39:01.857Z,43.30
2018-06-08T07:41:05.048Z,48.63
2018-06-08T07:43:08.593Z,46.30
2018-06-08T07:45:11.770Z,44.03
2018-06-08T07:47:14.997Z,42.03
2018-06-08T07:49:18.245Z,41.20
2018-06-08T07:51:21.389Z,43.23
2018-06-08T07:53:24.610Z,40.27
2018-06-08T07:55:28.232Z,40.03
2018-06-08T07:57:31.691Z,40.33
2018-06-08T07:59:35.252Z,39.80
2018-06-08T08:01:38.528Z,39.30
2018-06-08T08:03:41.751Z,42.70
2018-06-08T08:05:44.671Z,42.70
2018-06-08T08:07:47.900Z,45.10
2018-06-08T08:09:51.036Z,41.23
2018-06-08T08:11:54.176Z,44.63
2018-06-08T08:13:57.311Z,46.80
2018-06-08T08:16:00.435Z,41.90
2018-06-08T08:18:03.571Z,40.90
2018-06-08T08:20:06.695Z,45.73
2018-06-08T08:22:09.815Z,43.37
2018-06-08T08:24:13.191Z,44.67
2018-06-08T08:26:16.444Z,45.00
2018-06-08T08:28:19.588Z,42.50
2018-06-08T08:30:22.479Z,43.93
2018-06-08T08:32:26.441Z,46.47
2018-06-08T08:34:29.624Z,43.87
2018-06-08T08:36:34.216Z,44.07
2018-06-08T08:38:37.337Z,48.43
2018-06-08T08:40:40.546Z,45.57
2018-06-08T08:42:43.688Z,47.33
2018-06-08T08:44:46.888Z,49.50
2018-06-08T08:46:50.035Z,52.80
2018-06-08T08:48:53.176Z,49.90
2018-06-08T08:50:56.420Z,49.27
2018-06-08T08:52:59.668Z,48.70
2018-06-08T08:55:02.825Z,47.43
2018-06-08T08:57:06.156Z,49.07
2018-06-08T08:59:09.282Z,47.80
2018-06-08T09:01:12.427Z,50.77
2018-06-08T09:03:15.465Z,49.60
2018-06-08T09:05:18.603Z,50.83
2018-06-08T09:07:21.741Z,50.20
2018-06-08T09:09:24.875Z,47.80
2018-06-08T09:11:28.032Z,49.83
2018-06-08T09:13:31.148Z,48.40
2018-06-08T09:15:34.289Z,52.67
2018-06-08T09:17:37.420Z,51.17
2018-06-08T09:19:40.569Z,50.17
2018-06-08T09:21:43.698Z,54.80
2018-06-08T09:23:46.807Z,55.37
2018-06-08T09:25:49.958Z,56.57
2018-06-08T09:27:53.098Z,56.43
2018-06-08T09:29:56.245Z,56.20
2018-06-08T09:31:59.376Z,53.40
2018-06-08T09:34:02.516Z,52.90
2018-06-08T09:36:05.731Z,53.50
2018-06-08T09:38:08.938Z,53.20
2018-06-08T09:40:12.098Z,50.37
2018-06-08T09:42:15.240Z,52.30
2018-06-08T09:44:18.200Z,46.67
2018-06-08T09:46:21.366Z,49.50
2018-06-08T09:48:24.527Z,46.97
2018-06-08T09:50:27.733Z,46.20
2018-06-08T09:52:30.860Z,49.80
2018-06-08T09:54:34.006Z,47.43
2018-06-08T09:56:37.135Z,48.37
2018-06-08T09:58:41.227Z,51.33
2018-06-08T10:00:44.956Z,48.70
2018-06-08T10:02:48.133Z,50.50
2018-06-08T10:04:51.247Z,48.77
2018-06-08T10:06:54.411Z,49.73
2018-06-08T10:08:57.545Z,51.93
2018-06-08T10:11:00.667Z,51.37
2018-06-08T10:13:03.809Z,52.00
2018-06-08T10:15:07.133Z,52.90
2018-06-08T10:17:10.275Z,52.80
2018-06-08T10:19:13.412Z,55.57
2018-06-08T10:21:16.528Z,53.30
2018-06-08T10:23:19.663Z,50.70
2018-06-08T10:25:22.784Z,52.27
2018-06-08T10:27:25.700Z,51.97
2018-06-08T10:29:28.868Z,51.47
2018-06-08T10:31:32.008Z,53.40
2018-06-08T10:33:35.696Z,54.47
2018-06-08T10:35:38.812Z,55.27
2018-06-08T10:37:41.940Z,55.57
2018-06-08T10:39:45.114Z,57.30
2018-06-08T10:41:48.041Z,55.77
2018-06-08T10:43:51.199Z,56.37
2018-06-08T10:45:54.336Z,58.67
2018-06-08T10:47:58.355Z,56.00
2018-06-08T10:50:01.276Z,55.47
2018-06-08T10:52:04.424Z,59.10
2018-06-08T10:54:07.560Z,57.63
2018-06-08T10:56:10.703Z,57.90
2018-06-08T10:58:13.859Z,57.27
2018-06-08T11:00:17.004Z,60.47
2018-06-08T11:02:20.156Z,63.77
2018-06-08T11:04:23.310Z,64.73
2018-06-08T11:06:26.444Z,60.90
2018-06-08T11:08:30.381Z,65.67
2018-06-08T11:10:33.525Z,68.03
2018-06-08T11:12:36.680Z,65.83
2018-06-08T11:14:39.835Z,65.10
2018-06-08T11:16:43.056Z,67.47
2018-06-08T11:18:46.220Z,66.30
2018-06-08T11:20:49.368Z,64.77
2018-06-08T11:22:52.560Z,70.87
2018-06-08T11:24:55.732Z,67.73
2018-06-08T11:26:58.917Z,70.17
2018-06-08T11:29:02.057Z,73.80
2018-06-08T11:31:05.215Z,72.73
2018-06-08T11:33:09.276Z,74.30
2018-06-08T11:35:12.413Z,75.77
2018-06-08T11:37:15.561Z,74.40
2018-06-08T11:39:18.722Z,78.10
2018-06-08T11:41:21.858Z,75.77
2018-06-08T11:43:24.992Z,71.70
2018-06-08T11:45:28.152Z,77.00
2018-06-08T11:47:31.388Z,86.07
2018-06-08T11:49:34.865Z,81.70
2018-06-08T11:51:37.988Z,81.17
2018-06-08T11:53:42.019Z,79.97
2018-06-08T11:55:45.152Z,84.30
2018-06-08T11:57:48.275Z,76.97
2018-06-08T11:59:51.420Z,81.57
2018-06-08T12:01:54.580Z,84.70
2018-06-08T12:03:57.696Z,84.17
2018-06-08T12:06:00.836Z,80.50
2018-06-08T12:08:04.053Z,78.30
2018-06-08T12:10:07.271Z,80.67
2018-06-08T12:12:10.420Z,80.73
2018-06-08T12:14:13.604Z,75.77
2018-06-08T12:16:16.797Z,70.77
2018-06-08T12:18:20.029Z,69.40
2018-06-08T12:20:23.171Z,75.00
2018-06-08T12:22:26.295Z,77.30
2018-06-08T12:24:29.436Z,68.77
2018-06-08T12:26:32.591Z,76.27
2018-06-08T12:28:35.736Z,75.00
2018-06-08T12:30:38.875Z,71.40
2018-06-08T12:32:42.104Z,69.77
2018-06-08T12:34:45.268Z,77.77
2018-06-08T12:36:48.424Z,71.60
2018-06-08T12:38:51.584Z,67.57
2018-06-08T12:40:54.757Z,63.23
2018-06-08T12:42:57.867Z,67.57
2018-06-08T12:45:00.980Z,67.07
2018-06-08T12:47:04.128Z,66.53
2018-06-08T12:49:07.277Z,65.43
2018-06-08T12:51:10.436Z,66.10
2018-06-08T12:53:13.574Z,71.73
2018-06-08T12:55:16.716Z,60.57
2018-06-08T12:57:19.865Z,57.30
2018-06-08T12:59:23.556Z,67.70
2018-06-08T13:01:26.704Z,65.97
2018-06-08T13:03:29.829Z,64.47
2018-06-08T13:05:32.964Z,70.10
2018-06-08T13:07:36.104Z,62.63
2018-06-08T13:09:39.244Z,62.77
2018-06-08T13:11:42.360Z,67.70
2018-06-08T13:13:45.484Z,66.20
2018-06-08T13:15:48.644Z,66.53
2018-06-08T13:17:51.944Z,67.70
2018-06-08T13:19:55.081Z,67.73
2018-06-08T13:21:58.225Z,58.37
2018-06-08T13:24:01.164Z,62.87
2018-06-08T13:26:04.312Z,57.60
2018-06-08T13:28:07.531Z,57.33
2018-06-08T13:30:10.663Z,60.17
2018-06-08T13:32:13.799Z,55.87
2018-06-08T13:34:16.946Z,57.37
2018-06-08T13:36:20.088Z,53.03
2018-06-08T13:38:23.220Z,51.37
2018-06-08T13:40:26.356Z,51.20
2018-06-08T13:42:29.615Z,51.67
2018-06-08T13:44:32.831Z,47.33
2018-06-08T13:46:43.552Z,48.67
2018-06-08T13:48:46.782Z,46.00
2018-06-08T13:50:49.963Z,51.00
2018-06-08T13:52:53.192Z,49.17
2018-06-08T13:54:56.101Z,43.50
2018-06-08T13:56:59.220Z,47.17
2018-06-08T13:59:02.416Z,46.40
2018-06-08T14:01:05.612Z,49.37
2018-06-08T14:03:08.807Z,43.10
2018-06-08T14:05:11.719Z,46.20
2018-06-08T14:07:14.840Z,49.60
2018-06-08T14:09:17.960Z,46.43
2018-06-08T14:11:21.083Z,46.40
2018-06-08T14:13:24.220Z,47.03
2018-06-08T14:15:27.352Z,45.53
2018-06-08T14:17:30.532Z,43.80
2018-06-08T14:19:33.396Z,44.57
2018-06-08T14:21:36.571Z,45.03
2018-06-08T14:23:39.714Z,41.83
2018-06-08T14:25:42.857Z,43.33
2018-06-08T14:27:45.980Z,43.10
2018-06-08T14:29:49.120Z,45.17
2018-06-08T14:31:52.263Z,37.77
2018-06-08T14:33:55.399Z,38.07
2018-06-08T14:35:58.548Z,38.47
2018-06-08T14:38:01.716Z,38.30
2018-06-08T14:40:04.848Z,40.77
2018-06-08T14:42:07.979Z,36.87
2018-06-08T14:44:11.616Z,37.90
2018-06-08T14:46:14.568Z,37.80
2018-06-08T14:48:17.709Z,39.10
2018-06-08T14:50:20.848Z,39.77
2018-06-08T14:52:23.980Z,38.40
2018-06-08T14:54:27.223Z,39.10
2018-06-08T14:56:30.359Z,37.17
2018-06-08T14:58:33.514Z,37.47
2018-06-08T15:00:36.649Z,33.63
2018-06-08T15:02:39.816Z,34.20
2018-06-08T15:04:42.991Z,37.23
2018-06-08T15:06:46.072Z,35.83
2018-06-08T15:08:49.188Z,35.50
2018-06-08T15:10:52.423Z,30.97
2018-06-08T15:12:55.543Z,31.23
2018-06-08T15:14:58.716Z,34.73
2018-06-08T15:17:01.876Z,33.70
2018-06-08T15:19:05.030Z,34.37
2018-06-08T15:21:08.161Z,33.77
2018-06-08T15:23:11.332Z,33.90
2018-06-08T15:25:14.439Z,36.27
2018-06-08T15:27:17.415Z,33.70
2018-06-08T15:29:20.589Z,33.70
2018-06-08T15:31:23.674Z,38.83
2018-06-08T15:33:26.816Z,35.40
2018-06-08T15:35:30.005Z,34.53
2018-06-08T15:37:33.124Z,33.40
2018-06-08T15:39:36.311Z,32.33
2018-06-08T15:41:39.452Z,32.93
2018-06-08T15:43:42.577Z,34.50
2018-06-08T15:45:45.716Z,33.00
2018-06-08T15:47:48.849Z,33.63
2018-06-08T15:49:52.531Z,33.10
2018-06-08T15:51:55.668Z,33.37
2018-06-08T15:53:58.641Z,31.90
2018-06-08T15:56:01.804Z,32.97
2018-06-08T15:58:04.933Z,35.40
2018-06-08T16:00:08.056Z,33.63
2018-06-08T16:02:11.194Z,35.10
2018-06-08T16:04:14.083Z,32.50
2018-06-08T16:06:17.212Z,32.20
2018-06-08T16:08:20.355Z,31.97
2018-06-08T16:10:23.503Z,33.67
2018-06-08T16:12:26.636Z,33.13
2018-06-08T16:14:29.776Z,29.70
2018-06-08T16:16:32.951Z,29.40
2018-06-08T16:18:36.093Z,31.70
2018-06-08T16:20:39.822Z,31.47
2018-06-08T16:22:43.010Z,31.07
2018-06-08T16:24:46.104Z,30.63
2018-06-08T16:26:49.296Z,32.87
2018-06-08T16:28:52.433Z,32.93
2018-06-08T16:30:55.643Z,31.40
2018-06-08T16:32:58.888Z,30.00
2018-06-08T16:35:02.081Z,30.53
2018-06-08T16:37:05.472Z,31.80
2018-06-08T16:39:08.608Z,30.87
2018-06-08T16:41:11.756Z,32.13
2018-06-08T16:43:14.668Z,30.87
2018-06-08T16:45:17.813Z,30.03
2018-06-08T16:47:20.936Z,33.20
2018-06-08T16:49:24.080Z,29.37
2018-06-08T16:51:27.196Z,28.23
2018-06-08T16:53:30.336Z,28.83
2018-06-08T16:55:33.475Z,29.20
2018-06-08T16:57:36.624Z,29.37
2018-06-08T16:59:39.760Z,27.50
2018-06-08T17:01:42.885Z,30.70
2018-06-08T17:03:46.797Z,28.50
2018-06-08T17:05:49.933Z,29.03
2018-06-08T17:07:53.139Z,27.50
2018-06-08T17:09:56.272Z,29.57
2018-06-08T17:11:59.457Z,27.77
2018-06-08T17:14:02.440Z,28.57
2018-06-08T17:16:05.618Z,27.27
2018-06-08T17:18:08.749Z,26.57
2018-06-08T17:20:11.868Z,28.27
2018-06-08T17:22:15.052Z,28.40
2018-06-08T17:24:18.216Z,29.73
2018-06-08T17:26:21.360Z,26.70
2018-06-08T17:28:24.496Z,28.50
2018-06-08T17:30:27.657Z,26.70
2018-06-08T17:32:30.923Z,27.40
2018-06-08T17:34:33.898Z,26.33
2018-06-08T17:36:36.826Z,26.80
2018-06-08T17:38:40.067Z,26.93
2018-06-08T17:40:43.091Z,28.70
2018-06-08T17:42:46.255Z,26.37
2018-06-08T17:44:49.396Z,27.87
2018-06-08T17:46:52.532Z,28.30
2018-06-08T17:48:55.665Z,27.00
2018-06-08T17:50:58.811Z,28.57
2018-06-08T17:53:02.548Z,27.17
2018-06-08T17:55:05.736Z,28.93
2018-06-08T17:57:08.935Z,25.40
2018-06-08T17:59:12.024Z,27.80
2018-06-08T18:01:15.188Z,28.63
2018-06-08T18:03:18.341Z,28.40
2018-06-08T18:05:21.473Z,30.07
2018-06-08T18:07:24.662Z,27.63
2018-06-08T18:09:27.850Z,29.70
2018-06-08T18:11:31.032Z,30.13
2018-06-08T18:13:34.228Z,29.03
2018-06-08T18:15:37.388Z,31.87
2018-06-08T18:17:40.656Z,30.73
2018-06-08T18:19:43.730Z,31.73
2018-06-08T18:21:46.867Z,33.13
2018-06-08T18:23:50.022Z,33.07
2018-06-08T18:25:54.147Z,30.93
2018-06-08T18:27:57.303Z,34.90
2018-06-08T18:30:00.448Z,36.13
2018-06-08T18:32:03.698Z,36.50
2018-06-08T18:34:06.920Z,38.10
2018-06-08T18:36:10.084Z,36.53
2018-06-08T18:38:13.239Z,34.47
2018-06-08T18:40:16.412Z,39.03
2018-06-08T18:42:19.579Z,38.80
2018-06-08T18:44:22.716Z,38.60
2018-06-08T18:46:25.886Z,39.60
2018-06-08T18:48:29.024Z,39.20
2018-06-08T18:50:32.181Z,41.97
2018-06-08T18:52:35.328Z,41.20
2018-06-08T18:54:38.456Z,42.20
2018-06-08T18:56:41.604Z,43.37
2018-06-08T18:58:44.759Z,42.43
2018-06-08T19:00:47.900Z,41.03
2018-06-08T19:02:51.068Z,42.10
2018-06-08T19:04:54.212Z,41.70
2018-06-08T19:06:57.355Z,40.87
2018-06-08T19:09:00.497Z,42.73
2018-06-08T19:11:03.648Z,44.00
2018-06-08T19:13:06.795Z,43.70
2018-06-08T19:15:09.932Z,41.87
2018-06-08T19:17:13.079Z,44.70
2018-06-08T19:19:16.263Z,44.67
2018-06-08T19:21:19.150Z,45.87
2018-06-08T19:23:22.392Z,45.80
2018-06-08T19:25:25.547Z,48.50
2018-06-08T19:27:28.698Z,48.07
2018-06-08T19:29:31.840Z,49.00
2018-06-08T19:31:34.975Z,44.80
2018-06-08T19:33:38.119Z,48.20
2018-06-08T19:35:41.281Z,47.83
2018-06-08T19:37:44.429Z,47.90
2018-06-08T19:39:47.580Z,47.50
2018-06-08T19:41:51.660Z,47.87
2018-06-08T19:43:54.775Z,49.37
2018-06-08T19:45:57.928Z,49.50
2018-06-08T19:48:01.085Z,50.37
2018-06-08T19:50:04.240Z,50.20
2018-06-08T19:52:07.676Z,51.20
2018-06-08T19:54:10.928Z,51.90
2018-06-08T19:56:14.051Z,52.87
2018-06-08T19:58:17.210Z,52.20
2018-06-08T20:00:20.352Z,50.60
2018-06-08T20:02:23.540Z,54.17
2018-06-08T20:04:26.684Z,54.83
2018-06-08T20:06:29.812Z,57.07
2018-06-08T20:08:32.965Z,55.97
2018-06-08T20:10:36.103Z,59.43
2018-06-08T20:12:39.264Z,55.20
2018-06-08T20:14:42.392Z,57.20
2018-06-08T20:16:45.536Z,56.37
2018-06-08T20:18:48.747Z,62.90
2018-06-08T20:20:51.932Z,62.10
2018-06-08T20:22:55.061Z,65.90
2018-06-08T20:24:58.224Z,65.27
2018-06-08T20:27:01.434Z,65.97
2018-06-08T20:29:04.571Z,64.00
2018-06-08T20:31:07.724Z,65.80
2018-06-08T20:33:10.987Z,69.00
2018-06-08T20:35:14.951Z,69.00
2018-06-08T20:37:18.100Z,69.13
2018-06-08T20:39:21.223Z,70.63
2018-06-08T20:41:24.383Z,68.27
2018-06-08T20:43:27.599Z,73.87
2018-06-08T20:45:30.788Z,68.93
2018-06-08T20:47:33.912Z,67.03
2018-06-08T20:49:37.043Z,69.00
2018-06-08T20:51:40.190Z,61.80
2018-06-08T20:53:43.315Z,65.70
2018-06-08T20:55:46.496Z,61.90
2018-06-08T20:58:00.097Z,60.50
2018-06-08T21:00:03.283Z,56.87
2018-06-08T21:02:06.957Z,57.10
2018-06-08T21:04:10.032Z,55.27
2018-06-08T21:06:13.172Z,48.90
2018-06-08T21:08:16.336Z,52.43
2018-06-08T21:10:19.503Z,49.87
2018-06-08T21:12:22.467Z,46.87
2018-06-08T21:14:25.612Z,46.10
2018-06-08T21:16:28.770Z,47.67
2018-06-08T21:18:31.676Z,45.50
2018-06-08T21:20:34.891Z,44.33
2018-06-08T21:22:38.067Z,44.00
2018-06-08T21:24:41.189Z,49.13
2018-06-08T21:26:44.360Z,41.03
2018-06-08T21:28:47.508Z,39.70
2018-06-08T21:30:50.645Z,34.13
2018-06-08T21:32:53.569Z,34.13
2018-06-08T21:34:56.709Z,34.50
2018-06-08T21:36:59.863Z,29.93
2018-06-08T21:39:03.033Z,30.90
2018-06-08T21:41:06.206Z,30.57
2018-06-08T21:43:09.331Z,28.23
2018-06-08T21:45:12.503Z,28.73
2018-06-08T21:47:15.633Z,30.23
2018-06-08T21:49:18.768Z,30.93
2018-06-08T21:51:21.989Z,31.37
2018-06-08T21:53:25.132Z,32.20
2018-06-08T21:55:28.315Z,32.07
2018-06-08T21:57:31.498Z,33.43
2018-06-08T21:59:34.617Z,38.33
2018-06-08T22:01:37.769Z,36.77
2018-06-08T22:03:41.027Z,36.77
2018-06-08T22:05:44.156Z,40.37
2018-06-08T22:07:47.344Z,41.60
2018-06-08T22:09:50.468Z,44.30
2018-06-08T22:11:53.620Z,39.77
2018-06-08T22:13:56.832Z,40.00
2018-06-08T22:15:59.973Z,43.93
2018-06-08T22:18:03.108Z,42.80
2018-06-08T22:20:06.267Z,42.17
2018-06-08T22:22:09.542Z,41.23
2018-06-08T22:24:12.670Z,41.37
2018-06-08T22:26:15.889Z,41.03
2018-06-08T22:28:18.973Z,38.87
2018-06-08T22:30:22.122Z,40.87
2018-06-08T22:32:25.340Z,36.23
2018-06-08T22:34:28.484Z,37.00
2018-06-08T22:36:31.608Z,32.83
2018-06-08T22:38:34.756Z,36.67
2018-06-08T22:40:37.906Z,33.20
2018-06-08T22:42:41.044Z,32.53
2018-06-08T22:44:44.196Z,34.17
2018-06-08T22:46:47.332Z,33.23
2018-06-08T22:48:50.492Z,34.13
2018-06-08T22:50:53.643Z,36.53
2018-06-08T22:52:56.803Z,36.67
2018-06-08T22:54:59.933Z,36.70
2018-06-08T22:57:03.172Z,38.80
2018-06-08T22:59:06.311Z,39.20
2018-06-08T23:01:09.440Z,37.27
2018-06-08T23:03:12.589Z,38.60
2018-06-08T23:05:15.737Z,37.40
2018-06-08T23:07:18.877Z,36.37
2018-06-08T23:09:22.017Z,35.03
2018-06-08T23:11:25.255Z,34.50
2018-06-08T23:13:28.344Z,35.40
2018-06-08T23:18:05.078Z,28.63
2018-06-08T23:20:08.201Z,30.83
2018-06-08T23:22:11.310Z,29.73
2018-06-08T23:24:14.433Z,29.53
2018-06-08T23:26:17.552Z,26.50
2018-06-08T23:28:20.661Z,28.93
2018-06-08T23:30:23.790Z,26.20
2018-06-08T23:32:26.911Z,25.10
2018-06-08T23:34:30.072Z,24.10
2018-06-08T23:36:33.175Z,25.87
2018-06-08T23:38:36.285Z,24.70
2018-06-08T23:40:39.424Z,23.43
2018-06-08T23:42:42.548Z,22.10
2018-06-08T23:44:45.688Z,19.40
2018-06-08T23:46:48.824Z,20.70
2018-06-08T23:48:51.960Z,19.50
2018-06-08T23:50:55.111Z,20.17
2018-06-08T23:52:58.252Z,20.37
2018-06-08T23:55:01.397Z,18.80
2018-06-08T23:57:04.708Z,20.00
2018-06-08T23:59:07.848Z,20.60
